Time;durP1;ratioP1;P1;durP2;ratioP2;P2;SDS_P1;SDS_P2;PMS_P1;PMS_P2;Temp;Humidity;BMP_temperature;BMP_pressure;BME280_temperature;BME280_humidity;BME280_pressure;Samples;Min_cycle;Max_cycle;Signal;HPM_P1;HPM_P2
2022/08/19 00:00:38;;;;;;;8.85;3.60;;;19.10;99.90;;;;;;5074508;28;20049;-73
2022/08/19 00:03:07;;;;;;;7.82;3.78;;;19.10;99.90;;;;;;5073235;28;20044;-74
2022/08/19 00:05:35;;;;;;;10.82;4.07;;;19.10;99.90;;;;;;5074173;28;20049;-73
2022/08/19 00:08:03;;;;;;;9.85;3.88;;;19.10;99.90;;;;;;5073040;28;20052;-74
2022/08/19 00:10:31;;;;;;;9.35;3.72;;;19.10;99.90;;;;;;5074113;28;20049;-73
2022/08/19 00:12:58;;;;;;;9.85;4.05;;;19.10;99.90;;;;;;5074424;28;20049;-74
2022/08/19 00:15:26;;;;;;;9.63;3.90;;;19.20;99.90;;;;;;5075161;28;20040;-73
2022/08/19 00:17:54;;;;;;;12.77;3.80;;;19.20;99.90;;;;;;5077831;28;20063;-74
2022/08/19 00:20:21;;;;;;;;;;;19.20;99.90;;;;;;5078278;28;20055;-73
2022/08/19 00:22:49;;;;;;;9.43;3.65;;;19.20;99.90;;;;;;5059164;28;20259;-73
2022/08/19 00:25:18;;;;;;;10.25;3.53;;;19.30;99.90;;;;;;5077852;28;20048;-73
2022/08/19 00:27:59;;;;;;;8.85;3.35;;;19.30;99.90;;;;;;5076785;28;20348;-73
2022/08/19 00:30:30;;;;;;;8.43;3.58;;;19.30;99.90;;;;;;5077729;28;20119;-73
2022/08/19 00:32:57;;;;;;;8.38;3.50;;;19.30;99.90;;;;;;5077581;28;20486;-73
2022/08/19 00:35:27;;;;;;;7.50;3.88;;;19.30;99.90;;;;;;5059133;28;20060;-73
2022/08/19 00:37:54;;;;;;;11.20;3.60;;;19.40;99.90;;;;;;5060332;28;20047;-73
2022/08/19 00:40:22;;;;;;;9.15;3.58;;;19.40;99.90;;;;;;5077622;28;20045;-73
2022/08/19 00:42:53;;;;;;;9.93;3.58;;;19.40;99.90;;;;;;5076612;28;20059;-74
2022/08/19 00:45:24;;;;;;;8.77;3.58;;;19.40;99.90;;;;;;5077786;28;20052;-73
2022/08/19 00:47:52;;;;;;;9.05;3.65;;;19.40;99.90;;;;;;5077801;28;20052;-73
2022/08/19 00:50:20;;;;;;;7.55;3.67;;;19.40;99.90;;;;;;5076324;28;20048;-73
2022/08/19 00:52:50;;;;;;;11.38;4.13;;;19.40;99.90;;;;;;5059978;28;20059;-73
2022/08/19 00:55:22;;;;;;;7.60;3.33;;;19.50;99.90;;;;;;5076012;28;20052;-74
2022/08/19 00:58:05;;;;;;;12.82;4.00;;;19.40;99.90;;;;;;5077124;28;20045;-73
2022/08/19 01:00:36;;;;;;;10.82;3.70;;;19.50;99.90;;;;;;5077206;28;20491;-73
2022/08/19 01:03:10;;;;;;;8.95;3.72;;;19.50;99.90;;;;;;5076153;28;20083;-73
2022/08/19 01:05:41;;;;;;;9.95;3.65;;;19.50;99.90;;;;;;5059937;28;20052;-73
2022/08/19 01:08:10;;;;;;;6.70;3.38;;;19.50;99.90;;;;;;5075834;28;20052;-73
2022/08/19 01:10:39;;;;;;;;;;;19.50;99.90;;;;;;5077318;28;20044;-74
2022/08/19 01:13:08;;;;;;;11.52;3.97;;;19.50;99.90;;;;;;5076786;28;19921;-73
2022/08/19 01:15:48;;;;;;;12.82;4.45;;;19.50;99.90;;;;;;5075845;28;20040;-73
2022/08/19 01:18:17;;;;;;;10.07;3.92;;;19.50;99.90;;;;;;5077113;28;20055;-73
2022/08/19 01:20:45;;;;;;;7.53;3.75;;;19.50;99.90;;;;;;5076670;28;20051;-73
2022/08/19 01:23:13;;;;;;;7.18;3.65;;;19.40;99.90;;;;;;5075601;28;20055;-73
2022/08/19 01:25:46;;;;;;;10.98;3.97;;;19.40;99.90;;;;;;5076103;28;20055;-73
2022/08/19 01:28:23;;;;;;;12.73;4.00;;;19.40;99.90;;;;;;5075301;28;20315;-73
2022/08/19 01:31:18;;;;;;;7.53;3.67;;;19.40;99.90;;;;;;5076672;28;20053;-73
2022/08/19 01:33:56;;;;;;;11.73;5.05;;;19.40;99.90;;;;;;5043620;28;20488;-73
2022/08/19 01:36:32;;;;;;;13.77;4.88;;;19.30;99.90;;;;;;5075127;28;20056;-73
2022/08/19 01:39:01;;;;;;;11.95;4.90;;;19.30;99.90;;;;;;5076615;28;20041;-73
2022/08/19 01:41:29;;;;;;;9.25;5.45;;;19.30;99.90;;;;;;5075092;28;20040;-73
2022/08/19 01:43:56;;;;;;;10.35;5.53;;;19.20;99.90;;;;;;5076710;28;20048;-73
2022/08/19 01:46:45;;;;;;;16.58;5.57;;;19.30;99.90;;;;;;5045019;28;20052;-73
2022/08/19 01:49:12;;;;;;;14.77;6.18;;;19.30;99.90;;;;;;5075035;28;20052;-73
2022/08/19 01:51:40;;;;;;;12.25;6.07;;;19.30;99.90;;;;;;5076082;28;20044;-73
2022/08/19 01:54:09;;;;;;;13.35;6.25;;;19.30;99.90;;;;;;5058395;28;20494;-73
2022/08/19 01:56:38;;;;;;;12.82;6.30;;;19.40;99.90;;;;;;5057769;28;20052;-73
2022/08/19 01:59:11;;;;;;;14.13;6.88;;;19.40;99.90;;;;;;5075895;28;20048;-73
2022/08/19 02:01:39;;;;;;;14.85;7.32;;;19.30;99.90;;;;;;5057737;28;20036;-73
2022/08/19 02:04:07;;;;;;;;;;;19.40;99.90;;;;;;5076216;28;20047;-73
2022/08/19 02:06:35;;;;;;;11.73;6.75;;;19.30;99.90;;;;;;5075747;28;19920;-73
2022/08/19 02:09:05;;;;;;;11.73;6.30;;;19.30;99.90;;;;;;5074710;28;20052;-73
2022/08/19 02:11:35;;;;;;;14.18;6.53;;;19.20;99.90;;;;;;5075651;28;20467;-73
2022/08/19 02:14:06;;;;;;;15.57;6.70;;;19.20;99.90;;;;;;5058015;28;20044;-73
2022/08/19 02:16:35;;;;;;;13.02;6.85;;;19.20;99.90;;;;;;5074457;28;20048;-73
2022/08/19 02:19:04;;;;;;;16.60;6.82;;;19.20;99.90;;;;;;5075491;28;20044;-73
2022/08/19 02:21:33;;;;;;;15.23;6.63;;;19.20;99.90;;;;;;5074375;28;20051;-72
2022/08/19 02:24:00;;;;;;;15.30;6.50;;;19.20;99.90;;;;;;5075656;28;20359;-73
2022/08/19 02:26:28;;;;;;;14.55;6.38;;;19.20;99.90;;;;;;5075852;28;20052;-74
2022/08/19 02:28:56;;;;;;;14.20;6.57;;;19.30;99.90;;;;;;5061006;28;20048;-73
2022/08/19 02:31:25;;;;;;;15.95;6.25;;;19.30;99.90;;;;;;5054274;28;20064;-73
2022/08/19 02:33:53;;;;;;;13.68;6.63;;;19.40;99.90;;;;;;5055266;28;20049;-74
2022/08/19 02:36:25;;;;;;;12.82;6.60;;;19.40;99.90;;;;;;5054084;28;20048;-73
2022/08/19 02:38:53;;;;;;;15.48;7.00;;;19.40;99.90;;;;;;5054462;28;20037;-73
2022/08/19 02:41:25;;;;;;;11.55;6.13;;;19.40;99.90;;;;;;5053996;28;20049;-73
2022/08/19 02:43:57;;;;;;;14.45;6.57;;;19.50;99.90;;;;;;5038129;28;20337;-74
2022/08/19 02:46:46;;;;;;;14.98;6.70;;;19.50;99.90;;;;;;5055609;28;20045;-73
2022/08/19 02:49:16;;;;;;;10.77;6.13;;;19.50;99.90;;;;;;5036777;28;20475;-74
2022/08/19 02:51:45;;;;;;;13.57;6.30;;;19.50;99.90;;;;;;5037654;28;20045;-73
2022/08/19 02:54:14;;;;;;;14.82;7.10;;;19.50;99.90;;;;;;5055002;28;20056;-74
2022/08/19 02:56:44;;;;;;;9.70;5.90;;;19.50;99.90;;;;;;5053743;28;20048;-74
2022/08/19 02:59:12;;;;;;;14.30;6.30;;;19.50;99.90;;;;;;5055242;28;20057;-74
2022/08/19 03:01:41;;;;;;;14.77;6.25;;;19.60;99.90;;;;;;5036695;28;20116;-74
2022/08/19 03:04:11;;;;;;;13.75;5.55;;;19.60;99.90;;;;;;5054754;28;20041;-73
2022/08/19 03:06:41;;;;;;;12.07;5.57;;;19.60;99.90;;;;;;5054917;28;20049;-73
2022/08/19 03:09:10;;;;;;;12.07;6.05;;;19.60;99.90;;;;;;5053701;28;20064;-73
2022/08/19 03:11:38;;;;;;;11.85;5.72;;;19.60;99.90;;;;;;5054631;28;20040;-74
2022/08/19 03:14:07;;;;;;;13.40;5.97;;;19.60;99.90;;;;;;5054771;28;20049;-72
2022/08/19 03:16:50;;;;;;;10.82;5.30;;;19.60;99.90;;;;;;5053743;28;20041;-74
2022/08/19 03:19:19;;;;;;;11.32;5.53;;;19.60;99.90;;;;;;5054517;28;20368;-73
2022/08/19 03:21:46;;;;;;;12.70;5.60;;;19.60;99.90;;;;;;5053465;28;20037;-74
2022/08/19 03:24:17;;;;;;;9.75;5.68;;;19.60;99.90;;;;;;5054899;28;20052;-72
2022/08/19 03:26:47;;;;;;;12.85;5.72;;;19.60;99.90;;;;;;5054966;28;20052;-73
2022/08/19 03:29:16;;;;;;;11.35;5.85;;;19.50;99.90;;;;;;5048336;28;20484;-73
2022/08/19 03:32:02;;;;;;;12.45;6.00;;;19.30;99.90;;;;;;5054444;28;20052;-73
2022/08/19 03:34:34;;;;;;;12.40;6.32;;;19.50;99.90;;;;;;5054489;28;20047;-73
2022/08/19 03:37:12;;;;;;;12.98;6.65;;;19.50;99.90;;;;;;5054463;28;20049;-73
2022/08/19 03:39:40;;;;;;;17.42;6.88;;;19.50;99.90;;;;;;5054572;28;20056;-73
2022/08/19 03:42:09;;;;;;;15.85;6.57;;;19.50;99.90;;;;;;5053449;28;20052;-73
2022/08/19 03:44:57;;;;;;;15.07;6.85;;;19.60;99.90;;;;;;5054415;28;20052;-73
2022/08/19 03:47:25;;;;;;;16.70;6.93;;;19.60;99.90;;;;;;5054654;28;20060;-73
2022/08/19 03:49:53;;;;;;;12.68;6.85;;;19.60;99.90;;;;;;5056276;28;20049;-73
2022/08/19 03:52:20;;;;;;;15.13;7.18;;;19.60;99.90;;;;;;5058515;28;20349;-74
2022/08/19 03:54:48;;;;;;;14.57;6.80;;;19.60;99.90;;;;;;5057181;28;20049;-73
2022/08/19 03:57:16;;;;;;;14.43;7.80;;;19.60;99.90;;;;;;5058221;28;20047;-73
2022/08/19 03:59:43;;;;;;;18.92;8.63;;;19.60;99.90;;;;;;5058135;28;20421;-74
2022/08/19 04:02:12;;;;;;;14.75;7.93;;;19.50;99.90;;;;;;5057065;28;20045;-73
2022/08/19 04:04:43;;;;;;;18.08;7.82;;;19.50;99.90;;;;;;5058379;28;20052;-73
2022/08/19 04:07:15;;;;;;;15.85;7.78;;;19.40;99.90;;;;;;5058044;28;20044;-73
2022/08/19 04:09:43;;;;;;;14.27;8.15;;;19.40;99.90;;;;;;5039540;28;20067;-72
2022/08/19 04:12:11;;;;;;;16.35;7.65;;;19.30;99.90;;;;;;5058210;28;20494;-74
2022/08/19 04:14:39;;;;;;;14.25;7.50;;;19.30;99.90;;;;;;5057302;28;20045;-74
2022/08/19 04:17:07;;;;;;;11.18;7.22;;;19.20;99.90;;;;;;5057802;28;20048;-73
2022/08/19 04:19:35;;;;;;;17.85;8.60;;;19.20;99.90;;;;;;5058033;28;20052;-73
2022/08/19 04:22:03;;;;;;;15.70;7.85;;;19.20;99.90;;;;;;5056738;28;20045;-73
2022/08/19 04:24:32;;;;;;;17.40;7.80;;;19.20;99.90;;;;;;5040782;28;20372;-74
2022/08/19 04:27:00;;;;;;;;;;;19.20;99.90;;;;;;5058225;28;20041;-73
2022/08/19 04:29:29;;;;;;;13.38;7.60;;;19.20;99.90;;;;;;5074043;28;19925;-73
2022/08/19 04:31:58;;;;;;;13.27;8.20;;;19.20;99.90;;;;;;5077808;28;20056;-73
2022/08/19 04:34:28;;;;;;;15.10;8.63;;;19.20;99.90;;;;;;5060237;28;20053;-73
2022/08/19 04:36:57;;;;;;;14.07;8.48;;;21.50;99.90;;;;;;5076423;28;20041;-74
2022/08/19 04:42:39;;;;;;;12.25;7.80;;;19.30;99.90;;;;;;5021831;28;20045;-73
2022/08/19 04:45:13;;;;;;;12.93;7.47;;;19.30;99.90;;;;;;5077595;28;20059;-73
2022/08/19 04:47:44;;;;;;;12.30;8.10;;;19.30;99.90;;;;;;5077491;28;20495;-73
2022/08/19 04:50:28;;;;;;;14.85;8.43;;;19.30;99.90;;;;;;5061916;28;20060;-73
2022/08/19 04:52:55;;;;;;;16.20;9.32;;;19.30;99.90;;;;;;5077733;28;20059;-73
2022/08/19 04:55:25;;;;;;;;;;;19.30;99.90;;;;;;5059045;28;20490;-73
2022/08/19 04:57:54;;;;;;;12.45;7.93;;;19.30;99.90;;;;;;5077661;28;19931;-73
2022/08/19 05:00:22;;;;;;;15.65;9.05;;;19.40;99.90;;;;;;5076456;28;20341;-73
2022/08/19 05:02:50;;;;;;;;;;;19.30;99.90;;;;;;5076542;28;20051;-73
2022/08/19 05:05:17;;;;;;;15.02;8.52;;;19.30;99.90;;;;;;5059499;28;20377;-72
2022/08/19 05:07:45;;;;;;;14.82;8.00;;;19.40;99.90;;;;;;5059529;28;20093;-72
2022/08/19 05:10:13;;;;;;;11.98;7.63;;;19.40;99.90;;;;;;5075480;28;20048;-72
2022/08/19 05:12:40;;;;;;;11.50;7.68;;;19.40;99.90;;;;;;5058912;28;20055;-72
2022/08/19 05:15:08;;;;;;;10.20;7.13;;;19.40;99.90;;;;;;5076064;28;20044;-72
2022/08/19 05:17:36;;;;;;;;;;;19.40;99.90;;;;;;5077884;28;20040;-72
2022/08/19 05:22:53;;;;;;;10.65;7.00;;;19.40;99.90;;;;;;5075826;28;20053;-72
2022/08/19 05:25:22;;;;;;;;;;;19.40;99.90;;;;;;5077653;28;20048;-73
2022/08/19 05:27:49;;;;;;;9.52;5.55;;;19.40;99.90;;;;;;5076500;28;20339;-71
2022/08/19 05:30:17;;;;;;;9.77;5.25;;;19.50;99.90;;;;;;5075668;28;20049;-72
2022/08/19 05:33:00;;;;;;;9.82;5.57;;;19.50;99.90;;;;;;5059547;28;20040;-73
2022/08/19 05:35:28;;;;;;;8.40;5.75;;;19.60;99.90;;;;;;5075406;28;20049;-72
2022/08/19 05:38:01;;;;;;;7.05;5.00;;;19.60;99.90;;;;;;5059831;28;20051;-72
2022/08/19 05:40:28;;;;;;;8.75;5.80;;;19.60;99.90;;;;;;5076536;28;20064;-73
2022/08/19 05:42:56;;;;;;;9.00;4.65;;;19.60;99.90;;;;;;5057700;28;20067;-72
2022/08/19 05:45:24;;;;;;;9.30;4.38;;;19.60;99.90;;;;;;5059006;28;20041;-73
2022/08/19 05:47:52;;;;;;;6.90;3.72;;;19.60;99.90;;;;;;5076501;28;20455;-72
2022/08/19 05:50:20;;;;;;;5.93;3.45;;;19.60;99.90;;;;;;5075167;28;20044;-72
2022/08/19 05:52:48;;;;;;;6.68;2.70;;;19.70;99.90;;;;;;5076255;28;20459;-72
2022/08/19 05:55:19;;;;;;;5.53;2.35;;;19.70;99.90;;;;;;5075257;28;20045;-73
2022/08/19 05:57:48;;;;;;;6.47;2.42;;;19.80;99.90;;;;;;5076083;28;20045;-72
2022/08/19 06:00:15;;;;;;;;;;;19.80;99.90;;;;;;5042148;28;20071;-72
2022/08/19 06:02:47;;;;;;;5.30;2.25;;;19.80;99.90;;;;;;5058276;28;19920;-72
2022/08/19 06:05:15;;;;;;;;;;;19.90;99.90;;;;;;5076539;28;20048;-72
2022/08/19 06:07:43;;;;;;;2.90;1.45;;;19.90;99.90;;;;;;5076010;28;19937;-73
2022/08/19 06:10:11;;;;;;;5.00;1.55;;;20.10;99.90;;;;;;5057094;28;20060;-73
2022/08/19 06:12:39;;;;;;;3.35;1.27;;;20.20;99.90;;;;;;5058151;28;20064;-72
2022/08/19 06:15:13;;;;;;;3.28;1.20;;;20.30;99.90;;;;;;5057261;28;20051;-72
2022/08/19 06:17:44;;;;;;;2.80;0.90;;;20.30;99.90;;;;;;5075553;28;20041;-73
2022/08/19 06:20:14;;;;;;;1.83;0.70;;;20.30;99.90;;;;;;5075746;28;20359;-72
2022/08/19 06:22:46;;;;;;;3.55;0.95;;;20.30;99.90;;;;;;5074252;28;20343;-73
2022/08/19 06:25:15;;;;;;;2.58;0.65;;;20.30;99.90;;;;;;5058492;28;20040;-72
2022/08/19 06:27:43;;;;;;;;;;;20.30;99.90;;;;;;5058402;28;20052;-72
2022/08/19 06:30:30;;;;;;;3.15;0.98;;;20.30;99.90;;;;;;5075557;28;20258;-73
2022/08/19 06:32:58;;;;;;;2.38;0.68;;;20.40;99.90;;;;;;5057969;28;20044;-72
2022/08/19 06:35:26;;;;;;;2.88;0.80;;;20.40;99.90;;;;;;5074415;28;20063;-72
2022/08/19 06:37:54;;;;;;;4.25;0.40;;;20.40;99.90;;;;;;5075093;28;20044;-72
2022/08/19 06:40:22;;;;;;;2.22;0.57;;;20.50;99.90;;;;;;5057891;28;20044;-72
2022/08/19 06:42:49;;;;;;;1.95;0.70;;;20.50;99.90;;;;;;5056718;28;20051;-73
2022/08/19 06:45:22;;;;;;;3.30;0.52;;;20.60;99.90;;;;;;5075130;28;20059;-73
2022/08/19 06:48:00;;;;;;;2.65;0.50;;;20.60;99.90;;;;;;5057010;28;20052;-73
2022/08/19 06:50:28;;;;;;;3.20;0.70;;;20.60;99.90;;;;;;5075453;28;20469;-72
2022/08/19 06:52:56;;;;;;;3.88;0.70;;;19.40;99.90;;;;;;5057797;28;20049;-72
2022/08/19 06:55:29;;;;;;;1.42;0.50;;;20.70;99.90;;;;;;5074064;28;20048;-72
2022/08/19 06:58:03;;;;;;;1.00;0.50;;;20.80;99.90;;;;;;5074958;28;20044;-72
2022/08/19 07:00:31;;;;;;;2.28;0.60;;;20.80;99.90;;;;;;5075004;28;20051;-73
2022/08/19 07:03:00;;;;;;;5.05;0.60;;;20.70;99.90;;;;;;5073768;28;20090;-72
2022/08/19 07:05:40;;;;;;;2.97;0.60;;;20.60;99.90;;;;;;5074841;28;20055;-72
2022/08/19 07:08:13;;;;;;;;;;;20.60;99.30;;;;;;5074569;28;20067;-73
2022/08/19 07:10:44;;;;;;;3.72;0.50;;;20.50;98.20;;;;;;5074917;28;19920;-72
2022/08/19 07:13:12;;;;;;;1.30;0.50;;;20.50;98.90;;;;;;5074917;28;20044;-72
2022/08/19 07:15:40;;;;;;;3.17;0.68;;;20.60;98.80;;;;;;5074259;28;20154;-72
2022/08/19 07:18:07;;;;;;;3.63;0.90;;;20.60;99.00;;;;;;5057227;28;20044;-72
2022/08/19 07:20:39;;;;;;;5.25;0.88;;;20.70;98.90;;;;;;5074919;28;20041;-72
2022/08/19 07:23:09;;;;;;;1.55;0.60;;;20.70;98.60;;;;;;5072967;28;20048;-72
2022/08/19 07:25:43;;;;;;;3.95;1.00;;;20.80;98.70;;;;;;5074649;28;20056;-73
2022/08/19 07:28:20;;;;;;;3.25;0.68;;;20.80;98.30;;;;;;5073856;28;20044;-72
2022/08/19 07:30:51;;;;;;;5.80;1.38;;;20.90;98.10;;;;;;5057872;28;20371;-72
2022/08/19 07:33:19;;;;;;;4.15;0.80;;;20.90;97.90;;;;;;5074476;28;20048;-72
2022/08/19 07:35:47;;;;;;;3.17;0.90;;;20.80;98.10;;;;;;5056344;28;20056;-72
2022/08/19 07:38:16;;;;;;;4.10;0.85;;;20.80;98.30;;;;;;5074439;28;20041;-72
2022/08/19 07:40:45;;;;;;;3.33;0.90;;;20.10;98.30;;;;;;5074896;28;20205;-73
2022/08/19 07:43:14;;;;;;;3.30;0.80;;;20.70;98.50;;;;;;5073552;28;20055;-73
2022/08/19 07:45:45;;;;;;;1.38;0.70;;;20.80;98.50;;;;;;5074625;28;20049;-72
2022/08/19 07:48:14;;;;;;;;;;;20.80;98.60;;;;;;5056057;28;20052;-72
2022/08/19 07:50:42;;;;;;;2.55;0.57;;;20.70;98.80;;;;;;5074835;28;19928;-72
2022/08/19 07:53:09;;;;;;;3.72;0.85;;;20.80;98.70;;;;;;5056734;28;20379;-72
2022/08/19 07:55:37;;;;;;;3.05;0.70;;;20.90;98.60;;;;;;5073265;28;20053;-72
2022/08/19 07:58:12;;;;;;;2.45;0.70;;;20.90;98.50;;;;;;5074258;28;20475;-72
2022/08/19 08:00:41;;;;;;;3.78;0.88;;;21.00;98.00;;;;;;5074076;28;20386;-72
2022/08/19 08:03:09;;;;;;;1.55;0.60;;;21.10;97.80;;;;;;5072577;28;20047;-72
2022/08/19 08:11:19;;;;;;;3.65;0.70;;;21.70;97.10;;;;;;5073859;28;20060;-72
2022/08/19 08:13:49;;;;;;;1.85;0.60;;;21.80;96.70;;;;;;5074108;28;20470;-75
2022/08/19 08:16:31;;;;;;;2.70;0.70;;;21.90;96.60;;;;;;5072675;28;20040;-74
2022/08/19 08:19:01;;;;;;;3.70;0.80;;;21.90;96.40;;;;;;5073757;28;20043;-72
2022/08/19 08:21:28;;;;;;;4.03;1.00;;;22.00;96.20;;;;;;5072705;28;20048;-72
2022/08/19 08:23:56;;;;;;;5.28;1.10;;;22.10;95.80;;;;;;5073716;28;20056;-71
2022/08/19 08:26:24;;;;;;;4.38;0.98;;;22.10;95.30;;;;;;5073974;28;20056;-71
2022/08/19 08:28:53;;;;;;;1.45;0.63;;;22.20;95.50;;;;;;5072478;28;20045;-72
2022/08/19 08:31:23;;;;;;;3.38;0.88;;;22.40;95.10;;;;;;5073462;28;20044;-71
2022/08/19 08:33:51;;;;;;;3.35;0.60;;;22.50;95.00;;;;;;5056327;28;20048;-74
2022/08/19 08:36:18;;;;;;;4.60;0.80;;;22.50;94.40;;;;;;5075013;28;20044;-74
2022/08/19 08:38:46;;;;;;;4.70;1.00;;;22.50;94.60;;;;;;5077373;28;20059;-74
2022/08/19 08:41:33;;;;;;;5.13;0.70;;;22.60;94.60;;;;;;5077449;28;20483;-74
2022/08/19 08:44:04;;;;;;;2.67;0.77;;;22.70;93.70;;;;;;5060076;28;20049;-74
2022/08/19 08:46:45;;;;;;;4.30;0.63;;;22.90;93.70;;;;;;5060055;28;20037;-74
2022/08/19 08:49:43;;;;;;;3.80;0.73;;;23.00;93.10;;;;;;5076373;28;20048;-74
2022/08/19 08:52:35;;;;;;;2.13;0.75;;;23.20;91.90;;;;;;5077223;28;20056;-74
2022/08/19 08:55:27;;;;;;;2.40;0.73;;;23.30;91.90;;;;;;5076637;28;20052;-74
2022/08/19 08:58:16;;;;;;;3.35;0.98;;;23.30;91.70;;;;;;5060048;28;20337;-75
2022/08/19 09:00:47;;;;;;;3.30;0.90;;;23.10;91.80;;;;;;5077189;28;20044;-74
2022/08/19 09:03:24;;;;;;;3.42;0.90;;;23.00;92.50;;;;;;5057907;28;20052;-74
2022/08/19 09:06:06;;;;;;;3.60;1.20;;;22.90;92.30;;;;;;5076961;28;20055;-74
2022/08/19 09:09:03;;;;;;;2.97;0.93;;;22.90;92.40;;;;;;5058171;28;20048;-74
2022/08/19 09:12:05;;;;;;;4.55;1.20;;;22.90;92.10;;;;;;5060657;28;20048;-74
2022/08/19 09:14:48;;;;;;;3.47;0.80;;;22.90;91.50;;;;;;5076605;28;20045;-75
2022/08/19 09:17:24;;;;;;;6.50;1.30;;;22.70;91.50;;;;;;5059509;28;20352;-74
2022/08/19 09:20:08;;;;;;;4.30;1.13;;;22.50;92.10;;;;;;5058917;28;20047;-81
2022/08/19 09:22:53;;;;;;;;;;;;;;;;;;;;;
2022/08/19 09:25:22;;;;;;;5.15;0.85;;;22.30;92.30;;;;;;5059050;28;20459;-76
2022/08/19 09:27:57;;;;;;;5.10;1.10;;;22.30;92.30;;;;;;5076151;28;20048;-74
2022/08/19 09:30:39;;;;;;;3.35;0.90;;;22.50;92.10;;;;;;5076818;28;20455;-74
2022/08/19 09:33:07;;;;;;;3.83;1.00;;;22.80;92.00;;;;;;5076643;28;20115;-74
2022/08/19 09:35:35;;;;;;;3.03;0.90;;;22.90;91.50;;;;;;5058653;28;20064;-75
2022/08/19 09:38:20;;;;;;;4.40;0.98;;;23.10;90.90;;;;;;5058852;28;20387;-75
2022/08/19 09:40:49;;;;;;;5.82;1.20;;;23.10;90.90;;;;;;5076671;28;20048;-71
2022/08/19 09:43:18;;;;;;;4.53;1.15;;;23.20;91.00;;;;;;5075159;28;20053;-73
2022/08/19 09:46:05;;;;;;;4.97;1.02;;;23.10;90.80;;;;;;5068299;28;20483;-75
2022/08/19 09:48:37;;;;;;;5.28;1.13;;;23.00;91.10;;;;;;5035361;28;20379;-72
2022/08/19 09:51:07;;;;;;;6.15;1.17;;;22.90;90.80;;;;;;5058493;28;20578;-72
2022/08/19 09:53:39;;;;;;;5.78;0.88;;;23.00;90.50;;;;;;5076427;28;20051;-72
2022/08/19 09:56:07;;;;;;;4.30;1.15;;;22.90;90.50;;;;;;5074271;28;20476;-74
2022/08/19 09:58:37;;;;;;;3.45;0.90;;;22.90;90.50;;;;;;5074761;28;20060;-74
2022/08/19 10:01:06;;;;;;;5.03;1.00;;;22.80;90.40;;;;;;5058165;28;20379;-74
2022/08/19 10:03:36;;;;;;;3.65;1.00;;;22.80;90.30;;;;;;5057061;28;20060;-73
2022/08/19 10:06:05;;;;;;;5.57;1.10;;;22.70;90.30;;;;;;5058233;28;20056;-77
2022/08/19 10:08:44;;;;;;;3.38;1.10;;;22.60;90.20;;;;;;5074581;28;20041;-74
2022/08/19 10:11:18;;;;;;;4.30;1.13;;;22.60;90.40;;;;;;5075396;28;20491;-74
2022/08/19 10:14:08;;;;;;;6.38;1.35;;;22.70;90.70;;;;;;5057911;28;20063;-79
2022/08/19 10:16:44;;;;;;;7.03;1.30;;;22.80;90.20;;;;;;5056608;28;20056;-80
2022/08/19 10:19:14;;;;;;;5.00;1.08;;;23.00;90.50;;;;;;5075546;28;20048;-74
2022/08/19 10:21:53;;;;;;;5.30;1.20;;;23.00;89.50;;;;;;5074252;28;20060;-75
2022/08/19 10:24:30;;;;;;;5.10;1.10;;;23.10;88.80;;;;;;5057729;28;20045;-76
2022/08/19 10:26:59;;;;;;;4.00;1.10;;;23.20;88.90;;;;;;5057587;28;20041;-75
2022/08/19 10:29:28;;;;;;;5.85;1.23;;;23.20;88.80;;;;;;5036245;28;20396;-76
2022/08/19 10:32:29;;;;;;;7.75;1.10;;;23.30;88.70;;;;;;5038404;28;20456;-75
2022/08/19 10:35:02;;;;;;;4.03;1.10;;;23.50;89.10;;;;;;5052981;28;20051;-76
2022/08/19 10:37:32;;;;;;;4.15;1.25;;;23.70;88.00;;;;;;5054962;28;20060;-75
2022/08/19 10:40:10;;;;;;;4.95;1.40;;;23.90;87.60;;;;;;5037422;28;20076;-76
2022/08/19 10:42:40;;;;;;;4.45;1.20;;;24.50;87.50;;;;;;5053867;28;20045;-76
2022/08/19 10:45:09;;;;;;;5.13;1.10;;;24.40;90.20;;;;;;5054793;28;20040;-76
2022/08/19 10:47:37;;;;;;;4.78;1.20;;;24.60;86.30;;;;;;5054774;28;20059;-77
2022/08/19 10:52:56;;;;;;;4.75;1.42;;;24.70;84.40;;;;;;5055185;28;20049;-76
2022/08/19 10:58:22;;;;;;;7.43;1.80;;;24.40;84.80;;;;;;5054401;28;20059;-76
2022/08/19 11:00:58;;;;;;;5.38;1.35;;;24.20;85.40;;;;;;5055338;28;20049;-76
2022/08/19 11:03:30;;;;;;;9.73;1.55;;;24.00;85.60;;;;;;5053711;28;20059;-76
2022/08/19 11:06:06;;;;;;;4.85;1.60;;;23.70;86.50;;;;;;5054947;28;20053;-76
2022/08/19 11:08:37;;;;;;;6.55;1.67;;;24.50;87.70;;;;;;5054154;28;20056;-76
2022/08/19 11:11:06;;;;;;;8.15;1.55;;;23.40;88.20;;;;;;5054327;28;20064;-76
2022/08/19 11:13:37;;;;;;;8.55;1.77;;;23.30;88.20;;;;;;5054707;28;20067;-76
2022/08/19 11:16:07;;;;;;;9.82;1.75;;;23.30;88.60;;;;;;5053712;28;20407;-76
2022/08/19 11:18:41;;;;;;;9.02;2.00;;;23.50;89.90;;;;;;5053740;28;20510;-75
2022/08/19 11:21:19;;;;;;;10.25;1.70;;;23.70;89.40;;;;;;5053727;28;20056;-75
2022/08/19 11:23:50;;;;;;;6.93;1.50;;;23.90;88.50;;;;;;5053902;28;20368;-77
2022/08/19 11:26:19;;;;;;;7.32;1.73;;;24.20;87.80;;;;;;5054891;28;20045;-75
2022/08/19 11:28:47;;;;;;;3.90;1.00;;;23.70;86.70;;;;;;5035997;28;20053;-76
2022/08/19 11:31:20;;;;;;;5.80;1.27;;;24.30;86.00;;;;;;5054461;28;20041;-76
2022/08/19 11:33:57;;;;;;;5.75;1.40;;;24.10;86.00;;;;;;5054737;28;20047;-76
2022/08/19 11:36:26;;;;;;;11.73;1.80;;;24.00;86.30;;;;;;5052704;28;20440;-76
2022/08/19 11:38:56;;;;;;;6.93;1.55;;;23.90;86.40;;;;;;5054378;28;20049;-76
2022/08/19 11:41:25;;;;;;;9.80;1.50;;;23.90;86.40;;;;;;5052105;28;20372;-74
2022/08/19 11:43:55;;;;;;;7.88;1.48;;;24.00;86.30;;;;;;5053529;28;20037;-74
2022/08/19 11:46:24;;;;;;;9.02;1.63;;;24.20;86.00;;;;;;5054203;28;20045;-60
2022/08/19 11:48:52;;;;;;;9.52;1.60;;;24.40;85.60;;;;;;5052158;28;20052;-79
2022/08/19 11:51:21;;;;;;;;;;;24.80;85.00;;;;;;5053494;28;20053;-74
2022/08/19 11:53:53;;;;;;;7.75;1.90;;;25.10;83.40;;;;;;5052791;28;19965;-77
2022/08/19 11:56:25;;;;;;;8.25;1.85;;;25.30;83.50;;;;;;5052066;28;20456;-74
2022/08/19 11:58:56;;;;;;;9.60;1.65;;;25.10;82.50;;;;;;5053395;28;20049;-73
2022/08/19 12:01:31;;;;;;;10.70;1.75;;;24.80;82.50;;;;;;5052745;28;20041;-78
2022/08/19 12:03:59;;;;;;;11.38;2.05;;;24.70;82.60;;;;;;5053166;28;20049;-76
2022/08/19 12:06:31;;;;;;;7.07;1.83;;;24.70;83.10;;;;;;5053873;28;20132;-77
2022/08/19 12:09:03;;;;;;;9.55;2.50;;;24.70;81.60;;;;;;5053151;28;20048;-78
2022/08/19 12:11:30;;;;;;;9.35;2.60;;;24.50;82.20;;;;;;5056744;28;20052;-74
2022/08/19 12:14:01;;;;;;;8.25;2.35;;;24.50;82.10;;;;;;5057803;28;20388;-78
2022/08/19 12:16:32;;;;;;;11.48;2.40;;;24.60;80.90;;;;;;5055887;28;20376;-77
2022/08/19 12:19:03;;;;;;;10.70;2.55;;;24.60;80.10;;;;;;5056697;28;20498;-78
2022/08/19 12:21:34;;;;;;;11.57;3.00;;;24.90;79.50;;;;;;5056439;28;20353;-73
2022/08/19 12:24:04;;;;;;;12.88;3.10;;;25.00;77.70;;;;;;5057280;28;20052;-78
2022/08/19 12:26:33;;;;;;;11.60;3.08;;;25.10;77.50;;;;;;5057606;28;20049;-73
2022/08/19 12:29:21;;;;;;;10.75;2.97;;;25.20;77.20;;;;;;5055022;28;20049;-73
2022/08/19 12:31:51;;;;;;;10.15;2.33;;;25.30;76.40;;;;;;5057420;28;20368;-73
2022/08/19 12:34:19;;;;;;;11.32;2.38;;;25.60;75.40;;;;;;5040048;28;20053;-74
2022/08/19 12:36:49;;;;;;;11.38;2.80;;;25.90;75.20;;;;;;5056192;28;20045;-74
2022/08/19 12:39:17;;;;;;;11.98;3.05;;;25.90;74.70;;;;;;5056278;28;20057;-73
2022/08/19 12:41:44;;;;;;;12.65;2.97;;;25.90;74.60;;;;;;5051321;28;20503;-74
2022/08/19 12:44:24;;;;;;;11.30;2.60;;;25.80;74.10;;;;;;5056937;28;20037;-73
2022/08/19 12:46:58;;;;;;;9.48;2.40;;;25.60;74.10;;;;;;5056852;28;20387;-80
2022/08/19 12:49:43;;;;;;;12.18;2.60;;;25.40;74.30;;;;;;5039016;28;20045;-81
2022/08/19 12:52:34;;;;;;;;;;;;;;;;;;;;;
2022/08/19 12:55:18;;;;;;;13.82;2.58;;;24.80;74.40;;;;;;5055812;28;20056;-77
2022/08/19 12:57:48;;;;;;;6.75;2.05;;;25.10;74.70;;;;;;5056269;28;20391;-78
2022/08/19 13:00:24;;;;;;;15.75;3.05;;;25.10;72.60;;;;;;5056793;28;20049;-77
2022/08/19 13:02:56;;;;;;;11.25;2.58;;;25.10;71.10;;;;;;5054809;28;20063;-76
2022/08/19 13:05:28;;;;;;;10.25;2.58;;;26.00;73.30;;;;;;5056018;28;20045;-74
2022/08/19 13:07:59;;;;;;;13.30;2.83;;;25.40;69.90;;;;;;5056052;28;20375;-74
2022/08/19 13:10:34;;;;;;;12.98;2.97;;;25.50;70.70;;;;;;5056881;28;20056;-78
2022/08/19 13:13:14;;;;;;;12.30;2.88;;;25.40;69.50;;;;;;5040981;28;20056;-78
2022/08/19 13:15:56;;;;;;;11.45;2.72;;;25.60;69.70;;;;;;5054839;28;20487;-78
2022/08/19 13:18:51;;;;;;;15.40;3.03;;;25.60;70.10;;;;;;5056226;28;20064;-72
2022/08/19 13:21:21;;;;;;;12.85;3.22;;;25.80;67.80;;;;;;5054538;28;20052;-72
2022/08/19 13:23:49;;;;;;;13.80;3.00;;;26.00;66.70;;;;;;5056194;28;20060;-77
2022/08/19 13:26:17;;;;;;;14.00;2.17;;;26.00;66.50;;;;;;5056527;28;20384;-75
2022/08/19 13:34:35;;;;;;;10.75;2.60;;;27.40;67.40;;;;;;5076375;28;20052;-76